Time;durP1;ratioP1;P1;durP2;ratioP2;P2;SDS_P1;SDS_P2;PMS_P1;PMS_P2;Temp;Humidity;BMP_temperature;BMP_pressure;BME280_temperature;BME280_humidity;BME280_pressure;Samples;Min_cycle;Max_cycle;Signal;HPM_P1;HPM_P2
2021/06/07 00:00:25;;;;;;;11.57;7.78;;;;;;;;;;143725;653;47022;-63
2021/06/07 00:02:53;;;;;;;8.35;7.32;;;;;;;;;;143732;627;45018;-62
2021/06/07 00:05:20;;;;;;;9.23;6.40;;;;;;;;;;143731;620;46022;-63
2021/06/07 00:07:47;;;;;;;9.63;7.32;;;;;;;;;;143728;581;46018;-63
2021/06/07 00:10:16;;;;;;;8.05;6.80;;;;;;;;;;143730;579;46012;-63
2021/06/07 00:12:44;;;;;;;9.25;7.53;;;;;;;;;;143727;620;46018;-63
2021/06/07 00:15:13;;;;;;;9.35;7.47;;;;;;;;;;143731;786;46023;-63
2021/06/07 00:17:41;;;;;;;8.05;6.97;;;;;;;;;;143725;622;47018;-63
2021/06/07 00:20:12;;;;;;;8.25;6.72;;;;;;;;;;143724;618;46012;-63
2021/06/07 00:22:39;;;;;;;13.40;7.32;;;;;;;;;;143729;622;45019;-64
2021/06/07 00:25:08;;;;;;;12.73;6.70;;;;;;;;;;143732;573;45032;-63
2021/06/07 00:27:36;;;;;;;9.35;6.93;;;;;;;;;;143725;569;46020;-63
2021/06/07 00:30:05;;;;;;;7.90;6.32;;;;;;;;;;143726;638;46012;-63
2021/06/07 00:32:32;;;;;;;10.30;7.03;;;;;;;;;;143729;633;45018;-63
2021/06/07 00:34:59;;;;;;;11.10;7.50;;;;;;;;;;143734;736;45022;-62
2021/06/07 00:37:26;;;;;;;11.00;7.70;;;;;;;;;;143726;608;46019;-63
2021/06/07 00:39:53;;;;;;;9.40;6.90;;;;;;;;;;143724;638;46012;-63
2021/06/07 00:42:20;;;;;;;10.18;7.30;;;;;;;;;;143729;644;45018;-63
2021/06/07 00:44:47;;;;;;;8.25;6.82;;;;;;;;;;143731;589;46023;-62
2021/06/07 00:47:15;;;;;;;9.60;6.80;;;;;;;;;;143726;627;46018;-63
2021/06/07 00:49:42;;;;;;;10.63;7.32;;;;;;;;;;143726;615;46012;-63
2021/06/07 00:52:09;;;;;;;13.77;8.20;;;;;;;;;;143728;600;45019;-64
2021/06/07 00:54:36;;;;;;;14.25;7.75;;;;;;;;;;143732;670;45022;-63
2021/06/07 00:57:03;;;;;;;14.05;6.95;;;;;;;;;;143727;788;46018;-63
2021/06/07 00:59:30;;;;;;;12.02;6.95;;;;;;;;;;143726;790;46023;-63
2021/06/07 01:01:57;;;;;;;9.95;6.95;;;;;;;;;;143728;585;45018;-63
2021/06/07 01:04:24;;;;;;;8.13;6.55;;;;;;;;;;143731;657;46022;-64
2021/06/07 01:06:51;;;;;;;10.20;7.32;;;;;;;;;;143725;790;46020;-64
2021/06/07 01:09:19;;;;;;;9.02;6.65;;;;;;;;;;143727;621;46012;-62
2021/06/07 01:11:46;;;;;;;10.48;6.72;;;;;;;;;;143728;604;45018;-64
2021/06/07 01:14:13;;;;;;;10.23;7.28;;;;;;;;;;143731;596;46012;-63
2021/06/07 01:16:39;;;;;;;9.10;7.00;;;;;;;;;;143728;564;46018;-63
2021/06/07 01:19:08;;;;;;;9.07;6.50;;;;;;;;;;143725;621;46012;-63
2021/06/07 01:21:35;;;;;;;9.20;6.75;;;;;;;;;;143729;577;45019;-62
2021/06/07 01:24:03;;;;;;;9.85;7.15;;;;;;;;;;143730;574;46022;-63
2021/06/07 01:26:30;;;;;;;7.93;6.70;;;;;;;;;;143727;602;46018;-63
2021/06/07 01:28:57;;;;;;;9.18;6.62;;;;;;;;;;143725;681;46013;-63
2021/06/07 01:31:24;;;;;;;9.27;6.60;;;;;;;;;;143730;798;45018;-62
2021/06/07 01:33:54;;;;;;;8.27;6.32;;;;;;;;;;143731;582;46012;-63
2021/06/07 01:36:22;;;;;;;14.68;6.68;;;;;;;;;;143726;587;46019;-62
2021/06/07 01:38:49;;;;;;;10.25;6.90;;;;;;;;;;143727;583;46012;-63
2021/06/07 01:41:18;;;;;;;14.02;7.60;;;;;;;;;;143729;632;45018;-63
2021/06/07 01:43:46;;;;;;;9.43;7.30;;;;;;;;;;143732;610;45023;-62
2021/06/07 01:46:13;;;;;;;9.27;6.65;;;;;;;;;;143726;569;46018;-63
2021/06/07 01:48:40;;;;;;;9.73;6.85;;;;;;;;;;143726;565;46021;-62
2021/06/07 01:51:09;;;;;;;8.85;6.57;;;;;;;;;;143729;642;45019;-63
2021/06/07 01:53:37;;;;;;;12.95;6.97;;;;;;;;;;143730;624;46022;-63
2021/06/07 01:56:06;;;;;;;10.95;6.62;;;;;;;;;;143724;597;47025;-62
2021/06/07 01:58:34;;;;;;;10.20;6.47;;;;;;;;;;143726;581;46012;-63
2021/06/07 02:01:08;;;;;;;14.75;7.47;;;;;;;;;;143729;564;45018;-62
2021/06/07 02:03:36;;;;;;;9.32;6.60;;;;;;;;;;143729;602;46022;-63
2021/06/07 02:06:06;;;;;;;10.70;6.90;;;;;;;;;;143725;627;47019;-63
2021/06/07 02:08:33;;;;;;;8.32;7.28;;;;;;;;;;143726;598;46012;-63
2021/06/07 02:11:12;;;;;;;14.43;7.25;;;;;;;;;;143730;575;45018;-63
2021/06/07 02:13:40;;;;;;;9.27;7.28;;;;;;;;;;143729;565;46023;-65
2021/06/07 02:16:19;;;;;;;8.65;6.28;;;;;;;;;;143726;634;46020;-64
2021/06/07 02:18:46;;;;;;;9.63;6.40;;;;;;;;;;143725;569;47012;-62
2021/06/07 02:21:16;;;;;;;14.05;6.80;;;;;;;;;;143729;624;45019;-63
2021/06/07 02:23:43;;;;;;;11.40;7.30;;;;;;;;;;143730;649;46012;-63
2021/06/07 02:26:10;;;;;;;8.10;6.70;;;;;;;;;;143727;698;46018;-64
2021/06/07 02:28:37;;;;;;;10.43;6.70;;;;;;;;;;143727;594;46023;-63
2021/06/07 02:31:05;;;;;;;14.15;6.65;;;;;;;;;;143729;569;45018;-63
2021/06/07 02:33:32;;;;;;;13.43;7.53;;;;;;;;;;143732;581;45031;-63
2021/06/07 02:35:59;;;;;;;11.43;7.45;;;;;;;;;;143728;582;46019;-62
2021/06/07 02:38:26;;;;;;;8.93;6.95;;;;;;;;;;143726;593;46012;-62
2021/06/07 02:40:54;;;;;;;15.40;7.47;;;;;;;;;;143728;563;45018;-63
2021/06/07 02:43:21;;;;;;;12.75;7.22;;;;;;;;;;143731;631;46013;-63
2021/06/07 02:45:48;;;;;;;8.80;7.20;;;;;;;;;;143726;569;46020;-63
2021/06/07 02:48:15;;;;;;;11.55;7.32;;;;;;;;;;143725;633;46012;-63
2021/06/07 02:50:45;;;;;;;10.77;7.43;;;;;;;;;;143728;564;45019;-63
2021/06/07 02:53:14;;;;;;;10.73;7.00;;;;;;;;;;143730;643;46022;-62
2021/06/07 02:55:49;;;;;;;18.05;7.93;;;;;;;;;;143727;563;46018;-63
2021/06/07 02:58:17;;;;;;;13.02;7.43;;;;;;;;;;143723;604;47012;-62
2021/06/07 03:00:48;;;;;;;13.60;7.00;;;;;;;;;;143729;620;45018;-63
2021/06/07 03:03:16;;;;;;;11.63;7.03;;;;;;;;;;143730;611;46022;-62
2021/06/07 03:05:44;;;;;;;10.40;6.57;;;;;;;;;;143727;574;46019;-62
2021/06/07 03:08:14;;;;;;;10.10;6.85;;;;;;;;;;143726;625;46012;-63
2021/06/07 03:10:43;;;;;;;10.20;7.62;;;;;;;;;;143725;609;48018;-62
2021/06/07 03:13:10;;;;;;;13.27;8.07;;;;;;;;;;143730;608;46013;-63
2021/06/07 03:15:37;;;;;;;7.78;6.72;;;;;;;;;;143725;569;46021;-63
2021/06/07 03:18:06;;;;;;;21.15;9.18;;;;;;;;;;143727;574;46012;-63
2021/06/07 03:20:34;;;;;;;9.02;7.07;;;;;;;;;;143729;618;45019;-63
2021/06/07 03:23:05;;;;;;;12.37;7.93;;;;;;;;;;143731;569;46012;-63
2021/06/07 03:25:32;;;;;;;15.43;8.38;;;;;;;;;;143725;586;46020;-62
2021/06/07 03:28:00;;;;;;;10.77;6.93;;;;;;;;;;143725;570;46013;-63
2021/06/07 03:30:28;;;;;;;15.27;8.27;;;;;;;;;;143728;621;46014;-62
2021/06/07 03:32:55;;;;;;;15.45;8.02;;;;;;;;;;143731;631;46022;-63
2021/06/07 03:35:22;;;;;;;10.07;7.30;;;;;;;;;;143728;592;46019;-65
2021/06/07 03:37:50;;;;;;;11.82;7.25;;;;;;;;;;143726;587;46012;-65
2021/06/07 03:40:24;;;;;;;11.35;6.90;;;;;;;;;;143729;598;45018;-63
2021/06/07 03:42:51;;;;;;;;;;;;;;;;;;143737;979;45023;-63
2021/06/07 03:45:18;;;;;;;14.10;7.05;;;;;;;;;;143737;589;46018;-63
2021/06/07 03:47:47;;;;;;;11.48;7.55;;;;;;;;;;143726;728;46012;-64
2021/06/07 03:50:18;;;;;;;9.75;6.93;;;;;;;;;;143728;566;45019;-63
2021/06/07 03:52:45;;;;;;;13.77;7.30;;;;;;;;;;143730;590;46010;-63
2021/06/07 03:55:16;;;;;;;15.65;7.55;;;;;;;;;;143726;569;47018;-62
2021/06/07 03:57:43;;;;;;;18.65;8.50;;;;;;;;;;143727;640;46013;-63
2021/06/07 04:00:13;;;;;;;20.33;7.40;;;;;;;;;;143728;577;46019;-64
2021/06/07 04:02:41;;;;;;;9.57;6.78;;;;;;;;;;143730;585;46010;-63
2021/06/07 04:05:09;;;;;;;12.18;6.47;;;;;;;;;;143725;629;46020;-63
2021/06/07 04:07:36;;;;;;;14.23;8.25;;;;;;;;;;143725;626;46922;-63
2021/06/07 04:10:08;;;;;;;9.55;7.10;;;;;;;;;;143726;571;46018;-64
2021/06/07 04:12:36;;;;;;;9.95;7.47;;;;;;;;;;143728;598;46012;-63
2021/06/07 04:15:06;;;;;;;12.40;7.30;;;;;;;;;;143727;605;46018;-62
2021/06/07 04:17:33;;;;;;;22.05;8.23;;;;;;;;;;143724;566;46022;-63
2021/06/07 04:20:01;;;;;;;17.35;8.07;;;;;;;;;;143727;868;46012;-63
2021/06/07 04:22:28;;;;;;;13.60;7.93;;;;;;;;;;143731;579;46023;-63
2021/06/07 04:24:55;;;;;;;17.80;9.02;;;;;;;;;;143727;564;46018;-64
2021/06/07 04:27:22;;;;;;;23.27;9.38;;;;;;;;;;143725;581;46023;-64
2021/06/07 04:29:49;;;;;;;13.88;6.70;;;;;;;;;;143729;656;46012;-64
2021/06/07 04:32:16;;;;;;;14.27;7.60;;;;;;;;;;143730;566;46012;-65
2021/06/07 04:34:43;;;;;;;18.37;8.68;;;;;;;;;;143727;611;46019;-64
2021/06/07 04:37:11;;;;;;;16.58;7.40;;;;;;;;;;143726;667;46022;-64
2021/06/07 04:39:38;;;;;;;11.25;6.45;;;;;;;;;;143729;777;45018;-65
2021/06/07 04:42:06;;;;;;;8.93;6.47;;;;;;;;;;143730;585;46010;-65
2021/06/07 04:44:33;;;;;;;25.25;8.32;;;;;;;;;;143727;682;46018;-64
2021/06/07 04:47:00;;;;;;;18.25;7.82;;;;;;;;;;143727;573;46022;-64
2021/06/07 04:49:27;;;;;;;13.93;7.60;;;;;;;;;;143727;675;46013;-64
2021/06/07 04:51:54;;;;;;;10.27;6.72;;;;;;;;;;143731;616;46010;-63
2021/06/07 04:54:21;;;;;;;11.70;6.85;;;;;;;;;;143726;700;46020;-64
2021/06/07 04:56:48;;;;;;;13.65;7.62;;;;;;;;;;143727;605;46013;-64
2021/06/07 04:59:15;;;;;;;14.82;6.68;;;;;;;;;;143725;590;46012;-62
2021/06/07 05:01:43;;;;;;;11.07;5.97;;;;;;;;;;143730;605;46022;-62
2021/06/07 05:04:10;;;;;;;14.02;6.72;;;;;;;;;;143727;565;46019;-62
2021/06/07 05:06:37;;;;;;;12.18;6.25;;;;;;;;;;143728;585;46012;-62
2021/06/07 05:09:04;;;;;;;15.55;6.30;;;;;;;;;;143727;569;46012;-62
2021/06/07 05:11:31;;;;;;;17.25;6.22;;;;;;;;;;143731;570;46022;-62
2021/06/07 05:13:58;;;;;;;13.98;6.90;;;;;;;;;;143726;583;46048;-62
2021/06/07 05:16:25;;;;;;;14.43;6.72;;;;;;;;;;143726;588;46022;-64
2021/06/07 05:18:52;;;;;;;11.60;6.12;;;;;;;;;;143729;581;45028;-64
2021/06/07 05:21:19;;;;;;;12.50;5.82;;;;;;;;;;143732;631;45026;-63
2021/06/07 05:23:46;;;;;;;10.65;6.10;;;;;;;;;;143726;582;47018;-63
2021/06/07 05:26:13;;;;;;;11.27;6.75;;;;;;;;;;143724;661;46922;-63
2021/06/07 05:28:40;;;;;;;12.15;7.43;;;;;;;;;;143726;598;46012;-63
2021/06/07 05:31:07;;;;;;;21.15;8.25;;;;;;;;;;143732;610;46010;-61
2021/06/07 05:33:33;;;;;;;15.32;7.22;;;;;;;;;;143728;576;46047;-63
2021/06/07 05:36:00;;;;;;;15.82;10.07;;;;;;;;;;143728;689;46012;-61
2021/06/07 05:38:28;;;;;;;16.30;10.48;;;;;;;;;;143728;572;46012;-62
2021/06/07 05:40:55;;;;;;;21.75;11.98;;;;;;;;;;143731;615;46010;-62
2021/06/07 05:43:23;;;;;;;20.88;9.20;;;;;;;;;;143727;708;46019;-62
2021/06/07 05:45:52;;;;;;;14.32;8.60;;;;;;;;;;143727;627;46012;-62
2021/06/07 05:48:19;;;;;;;13.02;8.70;;;;;;;;;;143729;592;45018;-63
2021/06/07 05:50:47;;;;;;;16.70;9.45;;;;;;;;;;143730;592;46010;-63
2021/06/07 05:53:15;;;;;;;18.40;9.90;;;;;;;;;;143726;590;46018;-62
2021/06/07 05:55:45;;;;;;;17.42;11.82;;;;;;;;;;143726;572;46022;-61
2021/06/07 05:58:19;;;;;;;15.05;9.77;;;;;;;;;;143727;602;46012;-61
2021/06/07 06:00:48;;;;;;;18.33;13.57;;;;;;;;;;143730;642;46022;-61
2021/06/07 06:03:16;;;;;;;12.60;8.07;;;;;;;;;;143727;708;46027;-61
2021/06/07 06:05:43;;;;;;;12.18;6.75;;;;;;;;;;143725;576;46022;-62
2021/06/07 06:08:11;;;;;;;17.75;8.63;;;;;;;;;;143729;564;45030;-62
2021/06/07 06:10:39;;;;;;;13.73;7.80;;;;;;;;;;143731;641;46010;-61
2021/06/07 06:13:06;;;;;;;14.13;8.52;;;;;;;;;;143727;569;46021;-61
2021/06/07 06:15:33;;;;;;;13.98;9.13;;;;;;;;;;143726;604;46022;-61
2021/06/07 06:18:00;;;;;;;11.77;7.47;;;;;;;;;;143729;601;46013;-60
2021/06/07 06:20:30;;;;;;;17.27;9.73;;;;;;;;;;143732;579;46010;-61
2021/06/07 06:23:01;;;;;;;15.57;10.45;;;;;;;;;;143728;577;46018;-61
2021/06/07 06:25:28;;;;;;;14.05;8.02;;;;;;;;;;143725;569;46023;-61
2021/06/07 06:27:56;;;;;;;13.85;8.68;;;;;;;;;;143728;566;46012;-60
2021/06/07 06:30:25;;;;;;;13.55;8.55;;;;;;;;;;143732;594;46010;-61
2021/06/07 06:32:56;;;;;;;12.60;8.13;;;;;;;;;;143727;606;46020;-61
2021/06/07 06:35:23;;;;;;;19.67;7.18;;;;;;;;;;143725;585;46023;-61
2021/06/07 06:37:51;;;;;;;15.23;7.32;;;;;;;;;;143731;647;45018;-61
2021/06/07 06:40:24;;;;;;;11.85;6.40;;;;;;;;;;143731;583;46022;-62
2021/06/07 06:42:52;;;;;;;32.00;8.48;;;;;;;;;;143728;587;46019;-60
2021/06/07 06:45:20;;;;;;;16.98;7.65;;;;;;;;;;143727;602;46022;-60
2021/06/07 06:47:49;;;;;;;14.10;6.22;;;;;;;;;;143727;610;46012;-61
2021/06/07 06:50:17;;;;;;;13.50;6.10;;;;;;;;;;143732;589;46023;-60
2021/06/07 06:52:44;;;;;;;16.02;8.20;;;;;;;;;;143727;565;46020;-61
2021/06/07 06:55:11;;;;;;;11.82;6.70;;;;;;;;;;143724;727;46030;-61
2021/06/07 06:57:38;;;;;;;16.98;6.80;;;;;;;;;;143727;598;46012;-62
2021/06/07 07:00:11;;;;;;;13.27;7.15;;;;;;;;;;143732;577;45020;-60
2021/06/07 07:02:38;;;;;;;11.63;6.62;;;;;;;;;;143727;604;46020;-58
2021/06/07 07:05:06;;;;;;;17.95;11.88;;;;;;;;;;143727;567;46022;-60
2021/06/07 07:07:33;;;;;;;17.60;11.02;;;;;;;;;;143728;564;46012;-63
2021/06/07 07:10:00;;;;;;;16.12;12.48;;;;;;;;;;143732;563;46022;-61
2021/06/07 07:12:27;;;;;;;20.67;11.35;;;;;;;;;;143728;581;46021;-61
2021/06/07 07:14:55;;;;;;;15.48;8.43;;;;;;;;;;143726;698;46022;-61
2021/06/07 07:17:22;;;;;;;12.20;8.27;;;;;;;;;;143730;625;45019;-61
2021/06/07 07:19:49;;;;;;;14.75;7.12;;;;;;;;;;143732;586;46011;-62
2021/06/07 07:22:17;;;;;;;12.37;8.05;;;;;;;;;;143727;623;46020;-60
2021/06/07 07:24:45;;;;;;;9.55;7.43;;;;;;;;;;143727;578;46022;-60
2021/06/07 07:27:14;;;;;;;15.18;6.47;;;;;;;;;;143727;575;46012;-60
2021/06/07 07:29:41;;;;;;;11.43;5.75;;;;;;;;;;143731;607;46022;-60
2021/06/07 07:32:08;;;;;;;13.73;6.72;;;;;;;;;;143727;577;46020;-61
2021/06/07 07:34:36;;;;;;;12.68;6.97;;;;;;;;;;143726;659;46023;-61
2021/06/07 07:37:04;;;;;;;11.18;6.55;;;;;;;;;;143728;641;46012;-61
2021/06/07 07:39:31;;;;;;;12.93;6.75;;;;;;;;;;143732;571;46010;-62
2021/06/07 07:41:59;;;;;;;10.98;6.15;;;;;;;;;;143727;569;46048;-61
2021/06/07 07:44:26;;;;;;;11.50;6.43;;;;;;;;;;143725;620;46022;-61
2021/06/07 07:46:54;;;;;;;13.18;6.30;;;;;;;;;;143730;572;45028;-61
2021/06/07 07:49:22;;;;;;;12.65;5.75;;;;;;;;;;143731;608;46027;-62
2021/06/07 07:51:49;;;;;;;13.82;6.72;;;;;;;;;;143726;603;46020;-61
2021/06/07 07:54:16;;;;;;;13.30;6.35;;;;;;;;;;143727;581;46022;-61
2021/06/07 07:56:44;;;;;;;18.20;6.40;;;;;;;;;;143728;572;46012;-60
2021/06/07 07:59:11;;;;;;;10.20;5.78;;;;;;;;;;143732;611;46022;-62
2021/06/07 08:01:37;;;;;;;15.18;5.78;;;;;;;;;;143728;577;46020;-60
2021/06/07 08:04:05;;;;;;;13.55;5.90;;;;;;;;;;143729;591;46012;-59
2021/06/07 08:06:32;;;;;;;10.95;6.22;;;;;;;;;;143729;582;46012;-59
2021/06/07 08:08:59;;;;;;;10.23;5.37;;;;;;;;;;143733;604;46022;-58
2021/06/07 08:11:26;;;;;;;12.10;5.80;;;;;;;;;;143727;602;46021;-60
2021/06/07 08:13:53;;;;;;;14.20;9.07;;;;;;;;;;143728;592;46022;-61
2021/06/07 08:16:20;;;;;;;16.83;9.13;;;;;;;;;;143732;591;45018;-60
2021/06/07 08:18:47;;;;;;;11.90;8.50;;;;;;;;;;143734;601;45023;-60
2021/06/07 08:21:14;;;;;;;14.87;7.75;;;;;;;;;;143728;620;46020;-61
2021/06/07 08:23:41;;;;;;;14.05;6.90;;;;;;;;;;143729;563;46012;-60
2021/06/07 08:26:08;;;;;;;12.27;7.03;;;;;;;;;;143730;604;46012;-59
2021/06/07 08:28:36;;;;;;;9.25;6.12;;;;;;;;;;143731;664;46038;-60
2021/06/07 08:31:03;;;;;;;10.25;6.25;;;;;;;;;;143729;575;46020;-58
2021/06/07 08:33:31;;;;;;;9.40;5.78;;;;;;;;;;143730;601;45920;-58
2021/06/07 08:35:58;;;;;;;10.93;5.85;;;;;;;;;;143732;589;45020;-59
2021/06/07 08:38:26;;;;;;;14.05;5.32;;;;;;;;;;143733;642;46020;-59
2021/06/07 08:40:54;;;;;;;9.30;5.37;;;;;;;;;;143727;616;46022;-59
2021/06/07 08:43:23;;;;;;;10.75;5.57;;;;;;;;;;143728;584;46020;-58
2021/06/07 08:45:50;;;;;;;7.80;5.43;;;;;;;;;;143730;585;46012;-59
2021/06/07 08:48:18;;;;;;;8.73;5.25;;;;;;;;;;143732;586;46010;-59
2021/06/07 08:50:45;;;;;;;14.93;5.50;;;;;;;;;;143728;592;46022;-60
2021/06/07 08:53:13;;;;;;;10.65;5.40;;;;;;;;;;143728;594;46020;-59
2021/06/07 08:55:41;;;;;;;8.05;5.37;;;;;;;;;;143729;565;46012;-60
2021/06/07 08:58:09;;;;;;;10.23;5.10;;;;;;;;;;143733;587;46020;-60
2021/06/07 09:00:41;;;;;;;8.30;4.57;;;;;;;;;;143730;577;46012;-59
2021/06/07 09:03:11;;;;;;;7.57;4.55;;;;;;;;;;143727;566;46020;-59
2021/06/07 09:05:39;;;;;;;9.15;4.57;;;;;;;;;;143731;579;45024;-60
2021/06/07 09:08:11;;;;;;;12.57;5.30;;;;;;;;;;143733;607;46020;-59
2021/06/07 09:10:44;;;;;;;7.25;5.37;;;;;;;;;;143728;578;47022;-61
2021/06/07 09:13:12;;;;;;;11.80;5.65;;;;;;;;;;143728;570;46020;-60
2021/06/07 09:15:42;;;;;;;11.15;5.20;;;;;;;;;;143732;571;45020;-60
2021/06/07 09:18:12;;;;;;;8.32;5.28;;;;;;;;;;143734;592;45021;-59
2021/06/07 09:20:41;;;;;;;6.87;5.05;;;;;;;;;;143728;634;46022;-59
2021/06/07 09:23:14;;;;;;;11.60;5.90;;;;;;;;;;143728;582;46020;-61
2021/06/07 09:25:47;;;;;;;8.48;4.85;;;;;;;;;;143731;645;45033;-59
2021/06/07 09:28:22;;;;;;;12.57;6.00;;;;;;;;;;143731;612;46020;-59
2021/06/07 09:30:57;;;;;;;12.98;5.40;;;;;;;;;;143728;610;46022;-59
2021/06/07 09:33:29;;;;;;;9.77;5.43;;;;;;;;;;143726;598;46021;-59
2021/06/07 09:36:12;;;;;;;9.25;5.93;;;;;;;;;;143731;669;46020;-59
2021/06/07 09:39:21;;;;;;;10.55;5.30;;;;;;;;;;143732;564;46020;-59
2021/06/07 09:42:13;;;;;;;10.57;5.37;;;;;;;;;;143729;643;46021;-59
2021/06/07 09:44:57;;;;;;;15.02;5.37;;;;;;;;;;143728;586;46020;-60
2021/06/07 09:47:41;;;;;;;13.18;5.90;;;;;;;;;;143727;566;46013;-60
2021/06/07 09:50:10;;;;;;;13.23;5.65;;;;;;;;;;143733;596;45022;-59
2021/06/07 09:52:45;;;;;;;15.85;6.00;;;;;;;;;;143728;578;46022;-59
2021/06/07 09:55:17;;;;;;;12.35;4.87;;;;;;;;;;143728;569;46020;-61
2021/06/07 09:57:53;;;;;;;22.95;5.95;;;;;;;;;;143729;574;46012;-60
2021/06/07 10:00:47;;;;;;;7.22;5.00;;;;;;;;;;143733;619;46020;-61
2021/06/07 10:03:19;;;;;;;11.10;5.32;;;;;;;;;;143729;606;46021;-60
2021/06/07 10:05:48;;;;;;;19.65;5.57;;;;;;;;;;143728;700;46020;-60
2021/06/07 10:08:16;;;;;;;11.90;4.75;;;;;;;;;;143728;612;46012;-61
2021/06/07 10:10:43;;;;;;;15.18;6.37;;;;;;;;;;143733;609;46012;-60
2021/06/07 10:13:13;;;;;;;10.77;5.32;;;;;;;;;;143729;612;46022;-60
2021/06/07 10:15:47;;;;;;;10.32;5.80;;;;;;;;;;143729;573;46012;-61
2021/06/07 10:18:20;;;;;;;13.25;5.85;;;;;;;;;;143729;576;46012;-61
2021/06/07 10:20:54;;;;;;;17.58;6.28;;;;;;;;;;143733;605;46012;-60
2021/06/07 10:23:30;;;;;;;23.08;7.28;;;;;;;;;;143729;589;46020;-60
2021/06/07 10:26:04;;;;;;;8.45;4.62;;;;;;;;;;143726;601;46021;-59
2021/06/07 10:28:36;;;;;;;9.18;5.50;;;;;;;;;;143730;646;46012;-59
2021/06/07 10:31:18;;;;;;;8.10;5.30;;;;;;;;;;143727;564;46020;-61
2021/06/07 10:34:04;;;;;;;9.80;4.78;;;;;;;;;;143727;594;46023;-61
2021/06/07 10:36:46;;;;;;;9.23;5.22;;;;;;;;;;143728;600;46020;-60
2021/06/07 10:39:30;;;;;;;8.40;4.70;;;;;;;;;;143730;569;46012;-60
2021/06/07 10:42:19;;;;;;;8.60;4.93;;;;;;;;;;143734;570;45021;-60
2021/06/07 10:44:53;;;;;;;8.05;4.68;;;;;;;;;;143727;665;46022;-60
2021/06/07 10:47:26;;;;;;;6.82;4.95;;;;;;;;;;143727;760;46021;-60
2021/06/07 10:50:04;;;;;;;10.40;4.78;;;;;;;;;;143731;585;46012;-61
2021/06/07 10:53:01;;;;;;;11.35;4.65;;;;;;;;;;143730;593;46020;-61
2021/06/07 10:55:42;;;;;;;9.13;4.68;;;;;;;;;;143729;689;46021;-59
2021/06/07 10:58:13;;;;;;;13.88;4.95;;;;;;;;;;143726;639;46020;-59
2021/06/07 11:00:48;;;;;;;11.80;4.70;;;;;;;;;;143730;569;46013;-59
2021/06/07 11:03:29;;;;;;;8.27;4.82;;;;;;;;;;143733;598;46012;-61
2021/06/07 11:05:58;;;;;;;9.00;4.60;;;;;;;;;;143728;658;47020;-60
2021/06/07 11:08:33;;;;;;;9.70;4.70;;;;;;;;;;143728;602;46021;-60
2021/06/07 11:11:09;;;;;;;7.37;4.57;;;;;;;;;;143732;573;45021;-60
2021/06/07 11:13:51;;;;;;;11.90;4.70;;;;;;;;;;143733;610;46012;-60
2021/06/07 11:16:32;;;;;;;8.93;4.55;;;;;;;;;;143729;635;46022;-62
2021/06/07 11:19:04;;;;;;;11.63;5.05;;;;;;;;;;143731;636;45920;-63
2021/06/07 11:21:34;;;;;;;12.75;5.05;;;;;;;;;;143729;613;46012;-64
2021/06/07 11:24:02;;;;;;;7.22;4.35;;;;;;;;;;143733;613;46020;-62
2021/06/07 11:26:41;;;;;;;9.45;5.12;;;;;;;;;;143730;606;46020;-63
2021/06/07 11:29:13;;;;;;;6.57;4.82;;;;;;;;;;143727;580;46020;-64
2021/06/07 11:31:47;;;;;;;7.62;4.80;;;;;;;;;;143730;587;46012;-62
2021/06/07 11:34:17;;;;;;;10.35;5.95;;;;;;;;;;143733;583;46012;-63
2021/06/07 11:37:09;;;;;;;9.85;5.00;;;;;;;;;;143728;586;46022;-62
2021/06/07 11:40:09;;;;;;;14.05;5.45;;;;;;;;;;143728;587;46021;-63
2021/06/07 11:42:56;;;;;;;8.70;4.55;;;;;;;;;;143728;594;46012;-64
2021/06/07 11:45:43;;;;;;;11.70;5.55;;;;;;;;;;143732;649;46012;-64
2021/06/07 11:48:10;;;;;;;10.60;4.72;;;;;;;;;;143730;571;46021;-65
2021/06/07 11:50:41;;;;;;;7.50;4.93;;;;;;;;;;143726;597;46020;-65
2021/06/07 11:53:16;;;;;;;10.63;4.90;;;;;;;;;;143728;564;46013;-66
2021/06/07 11:55:45;;;;;;;9.35;5.87;;;;;;;;;;143734;690;46012;-67
2021/06/07 11:58:23;;;;;;;10.00;6.82;;;;;;;;;;143729;600;46022;-67
2021/06/07 12:00:55;;;;;;;11.18;5.90;;;;;;;;;;143727;602;46021;-66
2021/06/07 12:03:29;;;;;;;8.50;5.22;;;;;;;;;;143730;629;46012;-65
2021/06/07 12:05:57;;;;;;;7.85;4.90;;;;;;;;;;143733;571;46020;-62
2021/06/07 12:08:26;;;;;;;8.25;4.57;;;;;;;;;;143728;629;47021;-63
2021/06/07 12:10:58;;;;;;;9.43;6.05;;;;;;;;;;143728;748;46035;-63
2021/06/07 12:13:36;;;;;;;11.23;8.10;;;;;;;;;;143733;604;45022;-62
2021/06/07 12:16:09;;;;;;;12.88;7.45;;;;;;;;;;143733;576;46020;-65
2021/06/07 12:18:47;;;;;;;11.02;8.57;;;;;;;;;;143729;581;46023;-63
2021/06/07 12:21:17;;;;;;;12.35;7.93;;;;;;;;;;143728;621;46020;-63
2021/06/07 12:23:56;;;;;;;14.98;7.20;;;;;;;;;;143729;590;46012;-61
2021/06/07 12:29:46;;;;;;;18.48;6.87;;;;;;;;;;143729;621;46012;-62
2021/06/07 12:32:25;;;;;;;20.33;8.40;;;;;;;;;;143729;624;46013;-62
2021/06/07 12:35:10;;;;;;;10.77;6.40;;;;;;;;;;143730;603;45020;-63
2021/06/07 12:38:04;;;;;;;12.60;7.50;;;;;;;;;;143732;637;46020;-64
2021/06/07 12:40:48;;;;;;;11.50;6.87;;;;;;;;;;143726;572;46021;-63
2021/06/07 12:43:22;;;;;;;12.48;7.20;;;;;;;;;;143726;587;46020;-62
2021/06/07 12:46:03;;;;;;;10.30;7.10;;;;;;;;;;143725;573;46020;-63
2021/06/07 12:48:32;;;;;;;9.32;6.85;;;;;;;;;;143731;570;46020;-62
2021/06/07 12:51:18;;;;;;;14.75;7.55;;;;;;;;;;143727;574;46020;-62
2021/06/07 12:53:52;;;;;;;9.32;5.87;;;;;;;;;;143727;570;46013;-63
2021/06/07 12:56:24;;;;;;;10.93;5.85;;;;;;;;;;143726;609;46012;-60
2021/06/07 12:58:57;;;;;;;16.17;7.43;;;;;;;;;;143733;577;46020;-63
2021/06/07 13:01:41;;;;;;;11.52;6.95;;;;;;;;;;143729;586;46015;-60
2021/06/07 13:04:08;;;;;;;10.30;6.95;;;;;;;;;;143726;631;46020;-63
2021/06/07 13:06:52;;;;;;;10.73;6.30;;;;;;;;;;143728;733;46012;-63
2021/06/07 13:09:35;;;;;;;10.80;6.47;;;;;;;;;;143730;569;46012;-62
2021/06/07 13:12:02;;;;;;;11.15;7.35;;;;;;;;;;143727;573;46020;-62
2021/06/07 13:14:30;;;;;;;12.23;8.55;;;;;;;;;;143727;600;46020;-61
2021/06/07 13:17:12;;;;;;;15.38;8.40;;;;;;;;;;143728;602;46012;-62
2021/06/07 13:19:44;;;;;;;13.62;8.32;;;;;;;;;;143731;583;46012;-61
2021/06/07 13:22:12;;;;;;;11.38;6.43;;;;;;;;;;143727;644;46021;-61
2021/06/07 13:24:40;;;;;;;10.55;6.05;;;;;;;;;;143726;586;46020;-61
2021/06/07 13:27:21;;;;;;;9.93;6.20;;;;;;;;;;143730;569;45025;-63
2021/06/07 13:30:05;;;;;;;9.45;6.70;;;;;;;;;;143731;565;46020;-61
2021/06/07 13:32:37;;;;;;;8.45;6.53;;;;;;;;;;143727;564;46023;-62
2021/06/07 13:35:09;;;;;;;11.43;6.87;;;;;;;;;;143725;585;46020;-61
2021/06/07 13:37:43;;;;;;;14.82;6.75;;;;;;;;;;143727;576;46015;-62
2021/06/07 13:40:41;;;;;;;10.15;6.70;;;;;;;;;;143731;658;46021;-62
2021/06/07 13:43:15;;;;;;;8.65;5.90;;;;;;;;;;143728;574;46020;-62
2021/06/07 13:45:44;;;;;;;8.98;6.45;;;;;;;;;;143726;650;46012;-64
2021/06/07 13:48:16;;;;;;;11.63;6.07;;;;;;;;;;143726;614;46012;-65
2021/06/07 13:50:54;;;;;;;12.65;6.97;;;;;;;;;;143731;593;46012;-63
2021/06/07 13:53:38;;;;;;;18.37;7.55;;;;;;;;;;143726;580;46021;-65
2021/06/07 13:56:14;;;;;;;19.12;7.97;;;;;;;;;;143726;582;46020;-63
2021/06/07 13:58:46;;;;;;;11.18;7.35;;;;;;;;;;143727;589;46012;-64
2021/06/07 14:01:15;;;;;;;12.68;7.37;;;;;;;;;;143731;603;46012;-65
2021/06/07 14:03:43;;;;;;;13.07;7.37;;;;;;;;;;143726;564;46020;-62
2021/06/07 14:06:13;;;;;;;21.75;8.55;;;;;;;;;;143726;584;46020;-62
2021/06/07 14:08:42;;;;;;;16.80;8.15;;;;;;;;;;143728;681;46012;-64
2021/06/07 14:11:11;;;;;;;12.88;7.57;;;;;;;;;;143729;598;46020;-63
2021/06/07 14:13:40;;;;;;;14.23;7.47;;;;;;;;;;143727;580;46020;-64
2021/06/07 14:16:07;;;;;;;13.52;7.62;;;;;;;;;;143724;613;46021;-63
2021/06/07 14:18:35;;;;;;;9.80;6.78;;;;;;;;;;143729;583;45032;-64
2021/06/07 14:21:03;;;;;;;13.80;7.57;;;;;;;;;;143730;611;46012;-64
2021/06/07 14:26:22;;;;;;;13.45;7.65;;;;;;;;;;143728;574;46020;-62
2021/06/07 14:28:50;;;;;;;12.18;7.93;;;;;;;;;;143729;620;45916;-64
2021/06/07 14:31:19;;;;;;;13.05;8.38;;;;;;;;;;143730;589;46021;-62
2021/06/07 14:33:46;;;;;;;12.10;6.85;;;;;;;;;;143725;578;46020;-62
2021/06/07 14:36:19;;;;;;;10.13;6.95;;;;;;;;;;143727;598;46012;-65
2021/06/07 14:38:48;;;;;;;11.73;7.07;;;;;;;;;;143727;599;46012;-65
2021/06/07 14:41:15;;;;;;;12.45;7.72;;;;;;;;;;143731;587;46020;-62
2021/06/07 14:43:48;;;;;;;10.80;7.12;;;;;;;;;;143726;585;46020;-65
2021/06/07 14:46:16;;;;;;;11.90;7.75;;;;;;;;;;143724;586;46021;-65
2021/06/07 14:48:44;;;;;;;14.23;7.35;;;;;;;;;;143730;598;45025;-64
2021/06/07 14:51:11;;;;;;;13.77;6.97;;;;;;;;;;143731;573;46012;-64
2021/06/07 14:53:39;;;;;;;14.43;7.30;;;;;;;;;;143727;610;46022;-63
2021/06/07 14:56:08;;;;;;;10.90;6.65;;;;;;;;;;143726;592;46020;-64
2021/06/07 14:58:35;;;;;;;16.55;7.87;;;;;;;;;;143728;576;46012;-63